Goody, Kentucky
Current Conditions -  °F | °C
As of 4:55 AM on Friday 19 Dec 2014 (Local Time) from KPBX Reporting Station
Overcast Overcast  
Wind Chill: 29°   Ceiling: 1500
Heat Index: 29°   Visibility: 10mi
Dew Point: 25°   Wind: 3mph
Humidity: 86%   Direction: 10°N
Pressure: 30.18"   Gusts: NA
Location:  37.632°N, 82.2603°W
Report Text: KPBX 190955Z AUTO 01003KT 10SM BKN015 OVC060 M02/M04 A3018 RMK AO2 T10161037
Loading
Personal Weather Stations






























Interactive Weather Map New forecast layout! Learn more

10-Day Weather Forecast

Advertisements
Track Severe Weather on mobile